Time,TemperatureF,DewpointF,PressureIn,WindDirection,WindDirectionDegrees,WindSpeedMPH,WindSpeedGustMPH,Humidity,HourlyPrecipIn,Conditions,Clouds,dailyrainin,SolarRadiationWatts/m^2,SoftwareType,DateUTC
2013-03-24 00:03:00,34.0,24.0,-100.00,NW,317,4.0,15.0,67,0.00,,,0.00,0.000000,,2013-03-24 04:03:00,
2013-03-24 00:13:00,34.0,24.0,-100.00,NW,317,4.0,15.0,67,0.00,,,0.00,0.000000,,2013-03-24 04:13:00,
2013-03-24 00:23:00,34.0,24.0,-100.00,NW,317,4.0,15.0,67,0.00,,,0.00,0.000000,,2013-03-24 04:23:00,
2013-03-24 00:33:00,34.0,24.0,-100.00,NW,317,4.0,15.0,67,0.00,,,0.00,0.000000,,2013-03-24 04:33:00,
2013-03-24 01:03:00,34.0,25.0,-100.00,NW,322,5.0,12.0,69,0.00,,,0.00,0.000000,,2013-03-24 05:03:00,
2013-03-24 01:13:00,34.0,25.0,-100.00,NW,322,5.0,12.0,69,0.00,,,0.00,0.000000,,2013-03-24 05:13:00,
2013-03-24 01:23:00,34.0,25.0,-100.00,NW,322,5.0,12.0,69,0.00,,,0.00,0.000000,,2013-03-24 05:23:00,
2013-03-24 01:32:00,34.0,25.0,-100.00,NW,322,5.0,12.0,69,0.00,,,0.00,0.000000,,2013-03-24 05:32:00,
2013-03-24 02:02:00,35.0,24.0,-100.00,NW,321,7.0,15.0,65,0.00,,,0.00,0.000000,,2013-03-24 06:02:00,
2013-03-24 02:12:00,35.0,24.0,-100.00,NW,321,7.0,15.0,65,0.00,,,0.00,0.000000,,2013-03-24 06:12:00,
2013-03-24 02:22:00,35.0,24.0,-100.00,NW,321,7.0,15.0,65,0.00,,,0.00,0.000000,,2013-03-24 06:22:00,
2013-03-24 02:32:00,35.0,24.0,-100.00,NW,321,7.0,15.0,65,0.00,,,0.00,0.000000,,2013-03-24 06:32:00,
2013-03-24 03:02:00,35.0,24.0,-100.00,NNW,327,6.0,17.0,65,0.00,,,0.00,0.000000,,2013-03-24 07:02:00,
2013-03-24 03:12:00,35.0,24.0,-100.00,NNW,327,6.0,17.0,65,0.00,,,0.00,0.000000,,2013-03-24 07:12:00,
2013-03-24 03:22:00,35.0,24.0,-100.00,NNW,327,6.0,17.0,65,0.00,,,0.00,0.000000,,2013-03-24 07:22:00,
2013-03-24 03:32:00,35.0,24.0,-100.00,NNW,327,6.0,17.0,65,0.00,,,0.00,0.000000,,2013-03-24 07:32:00,
2013-03-24 04:03:00,35.0,25.0,-100.00,NNW,336,7.0,20.0,66,0.00,,,0.00,0.000000,,2013-03-24 08:03:00,
2013-03-24 04:12:00,35.0,25.0,-100.00,NNW,336,7.0,20.0,66,0.00,,,0.00,0.000000,,2013-03-24 08:12:00,
2013-03-24 04:22:00,35.0,25.0,-100.00,NNW,336,7.0,20.0,66,0.00,,,0.00,0.000000,,2013-03-24 08:22:00,
2013-03-24 04:32:00,35.0,25.0,-100.00,NNW,336,7.0,20.0,66,0.00,,,0.00,0.000000,,2013-03-24 08:32:00,
2013-03-24 05:02:00,35.0,25.0,-100.00,NNW,328,6.0,17.0,66,0.00,,,0.00,0.000000,,2013-03-24 09:02:00,
2013-03-24 05:12:00,35.0,25.0,-100.00,NNW,328,6.0,17.0,66,0.00,,,0.00,0.000000,,2013-03-24 09:12:00,
2013-03-24 05:22:00,35.0,25.0,-100.00,NNW,328,6.0,17.0,66,0.00,,,0.00,0.000000,,2013-03-24 09:22:00,
2013-03-24 05:33:00,35.0,25.0,-100.00,NNW,328,6.0,17.0,66,0.00,,,0.00,0.000000,,2013-03-24 09:33:00,
2013-03-24 06:03:00,35.0,26.0,-100.00,NNW,333,7.0,17.0,69,0.00,,,0.00,0.000000,,2013-03-24 10:03:00,
2013-03-24 06:13:00,35.0,26.0,-100.00,NNW,333,7.0,17.0,69,0.00,,,0.00,0.000000,,2013-03-24 10:13:00,
2013-03-24 06:23:00,35.0,26.0,-100.00,NNW,333,7.0,17.0,69,0.00,,,0.00,0.000000,,2013-03-24 10:23:00,
2013-03-24 06:33:00,35.0,26.0,-100.00,NNW,333,7.0,17.0,69,0.00,,,0.00,0.000000,,2013-03-24 10:33:00,
2013-03-24 07:03:00,35.0,26.0,-100.00,NNW,344,8.0,20.0,69,0.00,,,0.00,1.000000,,2013-03-24 11:03:00,
2013-03-24 07:12:00,35.0,26.0,-100.00,NNW,344,8.0,20.0,69,0.00,,,0.00,1.000000,,2013-03-24 11:12:00,
2013-03-24 07:22:00,35.0,26.0,-100.00,NNW,344,8.0,20.0,69,0.00,,,0.00,1.000000,,2013-03-24 11:22:00,
2013-03-24 07:33:00,35.0,26.0,-100.00,NNW,344,8.0,20.0,69,0.00,,,0.00,1.000000,,2013-03-24 11:33:00,
2013-03-24 08:03:00,37.0,26.0,-100.00,NNW,344,6.0,17.0,63,0.00,,,0.00,37.000000,,2013-03-24 12:03:00,
2013-03-24 08:13:00,37.0,26.0,-100.00,NNW,344,6.0,17.0,63,0.00,,,0.00,37.000000,,2013-03-24 12:13:00,
2013-03-24 08:23:00,37.0,26.0,-100.00,NNW,344,6.0,17.0,63,0.00,,,0.00,37.000000,,2013-03-24 12:23:00,
2013-03-24 08:32:00,37.0,26.0,-100.00,NNW,344,6.0,17.0,63,0.00,,,0.00,37.000000,,2013-03-24 12:32:00,
2013-03-24 09:02:00,41.0,27.0,-100.00,NNW,344,6.0,14.0,56,0.00,,,0.00,216.000000,,2013-03-24 13:02:00,
2013-03-24 09:13:00,41.0,27.0,-100.00,NNW,344,6.0,14.0,56,0.00,,,0.00,216.000000,,2013-03-24 13:13:00,
2013-03-24 09:23:00,41.0,27.0,-100.00,NNW,344,6.0,14.0,56,0.00,,,0.00,216.000000,,2013-03-24 13:23:00,
2013-03-24 09:32:00,41.0,27.0,-100.00,NNW,344,6.0,14.0,56,0.00,,,0.00,216.000000,,2013-03-24 13:32:00,
2013-03-24 10:02:00,45.0,27.0,-100.00,NNW,334,6.0,17.0,49,0.00,,,0.00,435.000000,,2013-03-24 14:02:00,
2013-03-24 10:13:00,45.0,27.0,-100.00,NNW,334,6.0,17.0,49,0.00,,,0.00,435.000000,,2013-03-24 14:13:00,
2013-03-24 10:22:00,45.0,27.0,-100.00,NNW,334,6.0,17.0,49,0.00,,,0.00,435.000000,,2013-03-24 14:22:00,
2013-03-24 10:32:00,45.0,27.0,-100.00,NNW,334,6.0,17.0,49,0.00,,,0.00,435.000000,,2013-03-24 14:32:00,
2013-03-24 11:02:00,47.0,26.0,-100.00,NNW,344,6.0,13.0,44,0.00,,,0.00,642.000000,,2013-03-24 15:02:00,
2013-03-24 11:13:00,47.0,26.0,-100.00,NNW,344,6.0,13.0,44,0.00,,,0.00,642.000000,,2013-03-24 15:13:00,
2013-03-24 11:22:00,47.0,26.0,-100.00,NNW,344,6.0,13.0,44,0.00,,,0.00,642.000000,,2013-03-24 15:22:00,
2013-03-24 11:33:00,47.0,26.0,-100.00,NNW,344,6.0,13.0,44,0.00,,,0.00,642.000000,,2013-03-24 15:33:00,
2013-03-24 12:03:00,48.0,26.0,-100.00,NNW,342,6.0,14.0,42,0.00,,,0.00,800.000000,,2013-03-24 16:03:00,
2013-03-24 12:13:00,48.0,26.0,-100.00,NNW,342,6.0,14.0,42,0.00,,,0.00,800.000000,,2013-03-24 16:13:00,
2013-03-24 12:23:00,48.0,26.0,-100.00,NNW,342,6.0,14.0,42,0.00,,,0.00,800.000000,,2013-03-24 16:23:00,
2013-03-24 12:33:00,48.0,26.0,-100.00,NNW,342,6.0,14.0,42,0.00,,,0.00,800.000000,,2013-03-24 16:33:00,
2013-03-24 13:03:00,49.0,26.0,-100.00,NNW,346,5.0,14.0,40,0.00,,,0.00,855.000000,,2013-03-24 17:03:00,
2013-03-24 13:12:00,49.0,26.0,-100.00,NNW,346,5.0,14.0,40,0.00,,,0.00,855.000000,,2013-03-24 17:12:00,
2013-03-24 13:23:00,49.0,26.0,-100.00,NNW,346,5.0,14.0,40,0.00,,,0.00,855.000000,,2013-03-24 17:23:00,
2013-03-24 13:33:00,49.0,26.0,-100.00,NNW,346,5.0,14.0,40,0.00,,,0.00,855.000000,,2013-03-24 17:33:00,
2013-03-24 14:03:00,47.0,26.0,-100.00,NW,320,4.0,12.0,43,0.00,,,0.00,790.000000,,2013-03-24 18:03:00,
2013-03-24 14:12:00,47.0,26.0,-100.00,NW,320,4.0,12.0,43,0.00,,,0.00,790.000000,,2013-03-24 18:12:00,
2013-03-24 14:22:00,47.0,26.0,-100.00,NW,320,4.0,12.0,43,0.00,,,0.00,790.000000,,2013-03-24 18:22:00,
2013-03-24 14:33:00,47.0,26.0,-100.00,NW,320,4.0,12.0,43,0.00,,,0.00,790.000000,,2013-03-24 18:33:00,
2013-03-24 15:03:00,46.0,24.0,-100.00,North,353,5.0,11.0,42,0.00,,,0.00,544.000000,,2013-03-24 19:03:00,
2013-03-24 15:12:00,46.0,24.0,-100.00,North,353,5.0,11.0,42,0.00,,,0.00,544.000000,,2013-03-24 19:12:00,
2013-03-24 15:23:00,46.0,24.0,-100.00,North,353,5.0,11.0,42,0.00,,,0.00,544.000000,,2013-03-24 19:23:00,
2013-03-24 15:32:00,46.0,24.0,-100.00,North,353,5.0,11.0,42,0.00,,,0.00,544.000000,,2013-03-24 19:32:00,
2013-03-24 16:03:00,46.0,26.0,-100.00,NNW,336,4.0,11.0,46,0.00,,,0.00,393.000000,,2013-03-24 20:03:00,
2013-03-24 16:12:00,46.0,26.0,-100.00,NNW,336,4.0,11.0,46,0.00,,,0.00,393.000000,,2013-03-24 20:12:00,
2013-03-24 16:22:00,46.0,26.0,-100.00,NNW,336,4.0,11.0,46,0.00,,,0.00,393.000000,,2013-03-24 20:22:00,
2013-03-24 16:32:00,46.0,26.0,-100.00,NNW,336,4.0,11.0,46,0.00,,,0.00,393.000000,,2013-03-24 20:32:00,
2013-03-24 17:03:00,43.0,27.0,-100.00,North,349,2.0,8.0,52,0.00,,,0.00,219.000000,,2013-03-24 21:03:00,
2013-03-24 17:12:00,43.0,27.0,-100.00,North,349,2.0,8.0,52,0.00,,,0.00,219.000000,,2013-03-24 21:12:00,
2013-03-24 17:22:00,43.0,27.0,-100.00,North,349,2.0,8.0,52,0.00,,,0.00,219.000000,,2013-03-24 21:22:00,
2013-03-24 17:33:00,43.0,27.0,-100.00,North,349,2.0,8.0,52,0.00,,,0.00,219.000000,,2013-03-24 21:33:00,
2013-03-24 18:03:00,42.0,26.0,-100.00,NNW,339,3.0,7.0,53,0.00,,,0.00,145.000000,,2013-03-24 22:03:00,
2013-03-24 18:13:00,42.0,26.0,-100.00,NNW,339,3.0,7.0,53,0.00,,,0.00,145.000000,,2013-03-24 22:13:00,
2013-03-24 18:23:00,42.0,26.0,-100.00,NNW,339,3.0,7.0,53,0.00,,,0.00,145.000000,,2013-03-24 22:23:00,
2013-03-24 18:33:00,42.0,26.0,-100.00,NNW,339,3.0,7.0,53,0.00,,,0.00,145.000000,,2013-03-24 22:33:00,
2013-03-24 19:03:00,39.0,26.0,-100.00,North,350,2.0,7.0,59,0.00,,,0.00,36.000000,,2013-03-24 23:03:00,
2013-03-24 19:12:00,39.0,26.0,-100.00,North,350,2.0,7.0,59,0.00,,,0.00,36.000000,,2013-03-24 23:12:00,
2013-03-24 19:23:00,39.0,26.0,-100.00,North,350,2.0,7.0,59,0.00,,,0.00,36.000000,,2013-03-24 23:23:00,
2013-03-24 19:32:00,39.0,26.0,-100.00,North,350,2.0,7.0,59,0.00,,,0.00,36.000000,,2013-03-24 23:32:00,
2013-03-24 20:02:00,33.0,26.0,-100.00,SE,132,0.0,5.0,74,0.00,,,0.00,3.000000,,2013-03-25 00:02:00,
2013-03-24 20:12:00,33.0,26.0,-100.00,SE,132,0.0,5.0,74,0.00,,,0.00,3.000000,,2013-03-25 00:12:00,
2013-03-24 20:23:00,33.0,26.0,-100.00,SE,132,0.0,5.0,74,0.00,,,0.00,3.000000,,2013-03-25 00:23:00,
2013-03-24 20:32:00,33.0,26.0,-100.00,SE,132,0.0,5.0,74,0.00,,,0.00,3.000000,,2013-03-25 00:32:00,
2013-03-24 21:02:00,31.0,26.0,-100.00,SE,125,2.0,3.0,80,0.00,,,0.00,0.000000,,2013-03-25 01:02:00,
2013-03-24 21:12:00,31.0,26.0,-100.00,SE,125,2.0,3.0,80,0.00,,,0.00,0.000000,,2013-03-25 01:12:00,
2013-03-24 21:22:00,31.0,26.0,-100.00,SE,125,2.0,3.0,80,0.00,,,0.00,0.000000,,2013-03-25 01:22:00,
2013-03-24 21:32:00,31.0,26.0,-100.00,SE,125,2.0,3.0,80,0.00,,,0.00,0.000000,,2013-03-25 01:32:00,
2013-03-24 22:02:00,30.0,25.0,-100.00,ESE,115,1.0,5.0,83,0.00,,,0.00,0.000000,,2013-03-25 02:02:00,
2013-03-24 22:12:00,30.0,25.0,-100.00,ESE,115,1.0,5.0,83,0.00,,,0.00,0.000000,,2013-03-25 02:12:00,
2013-03-24 22:23:00,30.0,25.0,-100.00,ESE,115,1.0,5.0,83,0.00,,,0.00,0.000000,,2013-03-25 02:23:00,
2013-03-24 22:33:00,30.0,25.0,-100.00,ESE,115,1.0,5.0,83,0.00,,,0.00,0.000000,,2013-03-25 02:33:00,
2013-03-24 23:03:00,29.0,25.0,-100.00,SSE,159,2.0,3.0,85,0.00,,,0.00,0.000000,,2013-03-25 03:03:00,
2013-03-24 23:13:00,29.0,25.0,-100.00,SSE,159,2.0,3.0,85,0.00,,,0.00,0.000000,,2013-03-25 03:13:00,
2013-03-24 23:23:00,29.0,25.0,-100.00,SSE,159,2.0,3.0,85,0.00,,,0.00,0.000000,,2013-03-25 03:23:00,
2013-03-24 23:33:00,29.0,25.0,-100.00,SSE,159,2.0,3.0,85,0.00,,,0.00,0.000000,,2013-03-25 03:33:00,